createdAt,value
2018-02-24T00:00:54.348Z,34.13
2018-02-24T00:03:22.215Z,36.58
2018-02-24T00:05:50.083Z,33.53
2018-02-24T00:08:17.951Z,37.35
2018-02-24T00:10:45.817Z,32.47
2018-02-24T00:13:13.685Z,27.87
2018-02-24T00:15:41.449Z,36.00
2018-02-24T00:18:09.317Z,37.83
2018-02-24T00:20:38.236Z,35.90
2018-02-24T00:23:06.074Z,33.75
2018-02-24T00:25:33.942Z,32.17
2018-02-24T00:28:01.810Z,34.08
2018-02-24T00:30:29.678Z,32.65
2018-02-24T00:32:57.545Z,28.00
2018-02-24T00:35:25.412Z,38.35
2018-02-24T00:37:53.279Z,34.20
2018-02-24T00:40:21.146Z,34.35
2018-02-24T00:42:49.014Z,32.05
2018-02-24T00:45:16.882Z,39.22
2018-02-24T00:47:44.748Z,34.45
2018-02-24T00:50:12.618Z,35.75
2018-02-24T00:52:40.483Z,30.67
2018-02-24T00:55:08.352Z,28.85
2018-02-24T00:57:37.815Z,30.83
2018-02-24T01:00:07.929Z,30.05
2018-02-24T01:02:35.844Z,31.20
2018-02-24T01:05:05.463Z,33.58
2018-02-24T01:07:35.078Z,32.28
2018-02-24T01:10:04.771Z,30.92
2018-02-24T01:12:34.542Z,28.77
2018-02-24T01:15:02.352Z,34.55
2018-02-24T01:17:30.218Z,32.47
2018-02-24T01:19:58.088Z,28.23
2018-02-24T01:22:28.646Z,30.52
2018-02-24T01:24:57.339Z,28.52
2018-02-24T01:27:25.986Z,28.60
2018-02-24T01:29:53.863Z,26.80
2018-02-24T01:32:56.365Z,27.62
2018-02-24T01:35:27.254Z,32.08
2018-02-24T01:37:57.143Z,28.73
2018-02-24T01:40:27.008Z,28.90
2018-02-24T01:42:56.398Z,37.30
2018-02-24T01:45:27.214Z,27.87
2018-02-24T01:47:55.005Z,30.27
2018-02-24T01:50:22.873Z,29.00
2018-02-24T01:52:50.741Z,29.67
2018-02-24T01:55:18.608Z,32.60
2018-02-24T01:57:46.478Z,26.17
2018-02-24T02:00:14.341Z,30.35
2018-02-24T02:02:42.210Z,29.52
2018-02-24T02:05:10.077Z,30.10
2018-02-24T02:07:37.943Z,29.95
2018-02-24T02:10:05.812Z,31.33
2018-02-24T02:12:33.679Z,33.97
2018-02-24T02:15:01.566Z,31.77
2018-02-24T02:17:29.412Z,31.85
2018-02-24T02:19:57.280Z,28.38
2018-02-24T02:22:25.147Z,31.87
2018-02-24T02:24:53.024Z,25.02
2018-02-24T02:27:20.910Z,29.77
2018-02-24T02:29:48.753Z,28.80
2018-02-24T02:32:16.618Z,29.40
2018-02-24T02:34:44.485Z,31.17
2018-02-24T02:37:12.351Z,28.87
2018-02-24T02:39:40.219Z,29.05
2018-02-24T02:42:08.086Z,26.05
2018-02-24T02:44:35.953Z,26.70
2018-02-24T02:47:03.821Z,26.83
2018-02-24T02:49:31.689Z,33.72
2018-02-24T02:51:59.556Z,31.25
2018-02-24T02:54:27.424Z,35.67
2018-02-24T02:56:55.289Z,35.30
2018-02-24T02:59:23.157Z,35.90
2018-02-24T03:01:51.031Z,29.83
2018-02-24T03:04:18.892Z,30.95
2018-02-24T03:06:46.760Z,35.55
2018-02-24T03:09:14.626Z,32.58
2018-02-24T03:11:42.494Z,28.48
2018-02-24T03:14:10.298Z,31.62
2018-02-24T03:16:38.950Z,32.53
2018-02-24T03:19:06.813Z,33.28
2018-02-24T03:21:34.680Z,31.87
2018-02-24T03:24:02.548Z,29.95
2018-02-24T03:26:30.414Z,32.08
2018-02-24T03:28:58.281Z,39.17
2018-02-24T03:31:26.199Z,29.95
2018-02-24T03:33:54.835Z,30.00
2018-02-24T03:36:22.703Z,31.20
2018-02-24T03:38:50.570Z,33.15
2018-02-24T03:41:18.437Z,30.75
2018-02-24T03:43:46.305Z,32.15
2018-02-24T03:46:30.966Z,28.38
2018-02-24T03:48:58.832Z,33.38
2018-02-24T03:51:26.700Z,30.37
2018-02-24T03:53:54.567Z,27.52
2018-02-24T03:56:22.427Z,28.90
2018-02-24T03:58:50.302Z,36.97
2018-02-24T04:01:18.172Z,30.23
2018-02-24T04:03:46.039Z,31.27
2018-02-24T04:06:13.904Z,32.63
2018-02-24T04:08:41.772Z,39.30
2018-02-24T04:11:09.639Z,29.40
2018-02-24T04:13:37.506Z,32.88
2018-02-24T04:16:05.374Z,36.08
2018-02-24T04:18:33.241Z,30.48
2018-02-24T04:21:01.109Z,35.90
2018-02-24T04:23:28.975Z,30.62
2018-02-24T04:25:56.844Z,35.22
2018-02-24T04:28:24.710Z,34.15
2018-02-24T04:30:52.578Z,33.60
2018-02-24T04:33:20.445Z,35.35
2018-02-24T04:35:48.312Z,35.33
2018-02-24T04:38:16.179Z,36.38
2018-02-24T04:40:44.047Z,31.80
2018-02-24T04:43:12.733Z,36.33
2018-02-24T04:45:40.600Z,32.00
2018-02-24T04:48:08.469Z,28.62
2018-02-24T04:50:36.335Z,29.15
2018-02-24T04:53:04.203Z,35.17
2018-02-24T04:55:32.070Z,33.50
2018-02-24T04:57:59.938Z,40.47
2018-02-24T05:00:27.808Z,30.83
2018-02-24T05:02:55.676Z,33.72
2018-02-24T05:05:23.539Z,32.35
2018-02-24T05:07:51.406Z,32.65
2018-02-24T05:10:19.275Z,33.38
2018-02-24T05:12:47.143Z,38.00
2018-02-24T05:15:15.015Z,39.30
2018-02-24T05:17:42.875Z,28.70
2018-02-24T05:20:10.744Z,29.92
2018-02-24T05:22:38.612Z,36.67
2018-02-24T05:25:06.481Z,31.90
2018-02-24T05:27:34.446Z,36.45
2018-02-24T05:30:02.317Z,30.17
2018-02-24T05:32:30.181Z,32.22
2018-02-24T05:34:58.049Z,33.72
2018-02-24T05:37:25.917Z,38.25
2018-02-24T05:39:53.784Z,35.83
2018-02-24T05:42:21.651Z,32.17
2018-02-24T05:44:49.519Z,32.30
2018-02-24T05:47:17.386Z,33.55
2018-02-24T05:49:45.252Z,39.03
2018-02-24T05:52:13.121Z,33.35
2018-02-24T05:54:40.993Z,33.55
2018-02-24T05:57:08.855Z,35.80
2018-02-24T05:59:36.725Z,30.10
2018-02-24T06:02:04.589Z,36.92
2018-02-24T06:04:32.457Z,46.13
2018-02-24T06:07:00.324Z,38.83
2018-02-24T06:09:28.192Z,33.30
2018-02-24T06:11:56.061Z,35.40
2018-02-24T06:14:23.926Z,33.40
2018-02-24T06:16:51.691Z,30.62
2018-02-24T06:19:19.558Z,38.45
2018-02-24T06:21:47.426Z,40.25
2018-02-24T06:24:15.295Z,35.50
2018-02-24T06:26:43.160Z,33.75
2018-02-24T06:29:11.028Z,31.95
2018-02-24T06:31:38.895Z,38.55
2018-02-24T06:34:06.762Z,34.22
2018-02-24T06:36:34.628Z,30.02
2018-02-24T06:39:02.496Z,36.78
2018-02-24T06:41:30.365Z,34.05
2018-02-24T06:43:58.872Z,36.67
2018-02-24T06:46:28.982Z,33.97
2018-02-24T06:48:59.550Z,36.80
2018-02-24T06:51:49.471Z,38.70
2018-02-24T06:54:21.223Z,32.35
2018-02-24T06:56:52.033Z,41.60
2018-02-24T06:59:22.226Z,37.08
2018-02-24T07:01:50.378Z,31.45
2018-02-24T07:04:18.239Z,30.85
2018-02-24T07:06:46.106Z,34.05
2018-02-24T07:09:14.076Z,31.15
2018-02-24T07:11:41.944Z,37.05
2018-02-24T07:14:09.811Z,32.53
2018-02-24T07:16:37.678Z,34.95
2018-02-24T07:19:06.468Z,34.13
2018-02-24T07:21:34.458Z,33.10
2018-02-24T07:24:02.406Z,29.48
2018-02-24T07:26:30.382Z,29.87
2018-02-24T07:28:58.243Z,36.58
2018-02-24T07:31:26.111Z,30.95
2018-02-24T07:33:56.074Z,33.75
2018-02-24T07:36:24.717Z,30.75
2018-02-24T07:38:52.478Z,38.70
2018-02-24T07:41:20.346Z,32.20
2018-02-24T07:43:48.218Z,32.42
2018-02-24T07:46:16.080Z,32.42
2018-02-24T07:48:43.947Z,34.33
2018-02-24T07:51:11.916Z,33.90
2018-02-24T07:53:39.784Z,37.20
2018-02-24T07:56:07.754Z,28.70
2018-02-24T07:58:35.620Z,31.73
2018-02-24T08:01:03.488Z,37.45
2018-02-24T08:03:31.372Z,28.87
2018-02-24T08:05:59.223Z,27.77
2018-02-24T08:08:27.091Z,34.28
2018-02-24T08:10:54.958Z,30.17
2018-02-24T08:13:22.919Z,29.75
2018-02-24T08:15:50.798Z,33.20
2018-02-24T08:18:19.327Z,33.67
2018-02-24T08:20:47.963Z,31.95
2018-02-24T08:23:15.831Z,36.05
2018-02-24T08:25:43.550Z,31.65
2018-02-24T08:28:11.266Z,28.17
2018-02-24T08:30:38.968Z,29.25
2018-02-24T08:33:06.787Z,32.67
2018-02-24T08:35:34.655Z,26.40
2018-02-24T08:38:02.523Z,28.33
2018-02-24T08:40:30.389Z,30.00
2018-02-24T08:42:58.258Z,25.65
2018-02-24T08:45:26.126Z,28.85
2018-02-24T08:47:53.992Z,26.80
2018-02-24T08:50:21.859Z,28.95
2018-02-24T08:52:49.747Z,33.47
2018-02-24T08:55:18.413Z,36.47
2018-02-24T08:57:46.280Z,43.55
2018-02-24T09:00:14.149Z,34.03
2018-02-24T09:02:42.015Z,31.85
2018-02-24T09:05:09.915Z,28.62
2018-02-24T09:07:38.568Z,29.80
2018-02-24T09:10:06.291Z,29.58
2018-02-24T09:12:34.006Z,32.33
2018-02-24T09:15:01.723Z,31.85
2018-02-24T09:17:29.438Z,31.55
2018-02-24T09:19:57.207Z,26.98
2018-02-24T09:22:24.917Z,32.13
2018-02-24T09:24:52.633Z,30.05
2018-02-24T09:27:20.386Z,30.20
2018-02-24T09:29:48.108Z,27.37
2018-02-24T09:32:15.959Z,27.45
2018-02-24T09:34:43.686Z,25.92
2018-02-24T09:37:11.405Z,23.10
2018-02-24T09:39:39.120Z,25.20
2018-02-24T09:42:06.833Z,26.80
2018-02-24T09:44:34.615Z,28.58
2018-02-24T09:47:02.326Z,28.67
2018-02-24T09:49:30.814Z,27.10
2018-02-24T09:51:59.298Z,25.65
2018-02-24T09:54:27.793Z,22.60
2018-02-24T09:56:55.515Z,23.75
2018-02-24T09:59:23.240Z,24.25
2018-02-24T10:01:50.978Z,25.33
2018-02-24T10:04:18.702Z,23.58
2018-02-24T10:06:46.463Z,22.48
2018-02-24T10:09:14.176Z,23.85
2018-02-24T10:11:42.657Z,20.92
2018-02-24T10:14:11.135Z,22.87
2018-02-24T10:16:39.619Z,19.92
2018-02-24T10:19:08.103Z,19.12
2018-02-24T10:21:35.835Z,17.50
2018-02-24T10:24:03.566Z,18.35
2018-02-24T10:26:31.290Z,20.85
2018-02-24T10:28:59.766Z,21.73
2018-02-24T10:31:28.255Z,14.05
2018-02-24T10:33:56.787Z,15.77
2018-02-24T10:36:24.518Z,13.90
2018-02-24T10:38:52.380Z,15.43
2018-02-24T10:41:20.148Z,12.95
2018-02-24T10:43:48.613Z,12.65
2018-02-24T10:46:17.089Z,12.68
2018-02-24T10:48:45.606Z,13.80
2018-02-24T10:51:13.336Z,12.85
2018-02-24T10:53:41.823Z,11.25
2018-02-24T10:56:09.598Z,9.75
2018-02-24T10:58:37.324Z,11.70
2018-02-24T11:01:05.081Z,10.93
2018-02-24T11:03:32.786Z,13.90
2018-02-24T11:06:01.278Z,12.02
2018-02-24T11:08:28.988Z,8.63
2018-02-24T11:10:56.743Z,10.18
2018-02-24T11:13:24.615Z,10.48
2018-02-24T11:15:52.340Z,9.00
2018-02-24T11:18:20.068Z,8.90
2018-02-24T11:20:47.775Z,9.95
2018-02-24T11:23:15.532Z,9.27
2018-02-24T11:25:43.244Z,8.85
2018-02-24T11:28:10.963Z,8.00
2018-02-24T11:30:38.706Z,9.35
2018-02-24T11:33:07.181Z,9.88
2018-02-24T11:35:35.663Z,7.95
2018-02-24T11:38:04.156Z,14.40
2018-02-24T11:40:32.644Z,11.82
2018-02-24T11:43:00.359Z,9.07
2018-02-24T11:45:28.102Z,8.02
2018-02-24T11:47:55.810Z,9.18
2018-02-24T11:50:23.516Z,9.50
2018-02-24T11:52:51.260Z,8.50
2018-02-24T11:55:18.975Z,8.95
2018-02-24T11:57:46.682Z,9.68
2018-02-24T12:00:15.168Z,9.88
2018-02-24T12:02:43.644Z,9.93
2018-02-24T12:05:12.123Z,10.23
2018-02-24T12:07:40.594Z,10.82
2018-02-24T12:10:09.127Z,11.50
2018-02-24T12:12:36.870Z,9.43
2018-02-24T12:15:04.595Z,12.55
2018-02-24T12:17:32.301Z,9.27
2018-02-24T12:20:00.024Z,14.05
2018-02-24T12:22:27.911Z,9.35
2018-02-24T12:24:56.393Z,10.88
2018-02-24T12:27:24.869Z,9.80
2018-02-24T12:29:53.417Z,12.18
2018-02-24T12:32:21.120Z,10.07
2018-02-24T12:34:49.660Z,9.38
2018-02-24T12:37:17.379Z,10.43
2018-02-24T12:39:45.091Z,10.35
2018-02-24T12:42:15.215Z,16.20
2018-02-24T12:44:42.927Z,14.38
2018-02-24T12:47:10.642Z,8.73
2018-02-24T12:49:38.370Z,13.98
2018-02-24T12:52:06.082Z,10.88
2018-02-24T12:54:33.798Z,9.95
2018-02-24T12:57:01.523Z,9.88
2018-02-24T12:59:29.230Z,10.27
2018-02-24T13:01:56.951Z,11.65
2018-02-24T13:04:24.661Z,12.30
2018-02-24T13:06:52.438Z,13.62
2018-02-24T13:09:20.158Z,11.55
2018-02-24T13:11:47.929Z,16.62
2018-02-24T13:14:15.658Z,15.57
2018-02-24T13:16:43.378Z,13.30
2018-02-24T13:19:11.086Z,12.60
2018-02-24T13:21:38.794Z,15.02
2018-02-24T13:24:06.530Z,13.07
2018-02-24T13:26:35.022Z,12.68
2018-02-24T13:29:03.511Z,13.60
2018-02-24T13:31:32.955Z,18.27
2018-02-24T13:34:00.731Z,12.90
2018-02-24T13:36:28.495Z,12.98
2018-02-24T13:38:56.310Z,17.02
2018-02-24T13:41:24.927Z,14.82
2018-02-24T13:43:52.666Z,13.68
2018-02-24T13:46:20.374Z,14.63
2018-02-24T13:48:50.084Z,13.57
2018-02-24T13:51:17.791Z,9.88
2018-02-24T13:53:46.315Z,12.15
2018-02-24T13:56:14.025Z,11.50
2018-02-24T13:58:41.733Z,11.48
2018-02-24T14:01:09.447Z,11.27
2018-02-24T14:03:37.166Z,12.40
2018-02-24T14:06:04.899Z,12.70
2018-02-24T14:08:33.378Z,11.12
2018-02-24T14:11:01.866Z,10.00
2018-02-24T14:13:29.615Z,10.18
2018-02-24T14:15:58.094Z,9.68
2018-02-24T14:18:26.573Z,11.80
2018-02-24T14:20:55.098Z,12.25
2018-02-24T14:23:22.815Z,10.43
2018-02-24T14:25:50.534Z,11.30
2018-02-24T14:28:18.240Z,8.32
2018-02-24T14:30:45.945Z,13.35
2018-02-24T14:33:14.417Z,11.63
2018-02-24T14:35:42.142Z,11.02
2018-02-24T14:38:09.853Z,10.45
2018-02-24T14:40:37.579Z,13.00
2018-02-24T14:43:05.301Z,8.68
2018-02-24T14:45:33.010Z,12.27
2018-02-24T14:48:00.727Z,10.98
2018-02-24T14:50:28.445Z,15.18
2018-02-24T14:52:56.925Z,12.48
2018-02-24T14:55:25.401Z,13.82
2018-02-24T14:57:53.881Z,10.98
2018-02-24T15:00:21.614Z,16.10
2018-02-24T15:02:49.324Z,8.20
2018-02-24T15:05:17.844Z,10.73
2018-02-24T15:07:45.594Z,11.02
2018-02-24T15:10:13.294Z,8.52
2018-02-24T15:12:41.026Z,8.18
2018-02-24T15:15:08.734Z,9.73
2018-02-24T15:17:36.514Z,14.87
2018-02-24T15:20:04.335Z,12.93
2018-02-24T15:22:32.055Z,15.18
2018-02-24T15:25:00.586Z,9.70
2018-02-24T15:27:28.353Z,11.15
2018-02-24T15:29:56.828Z,12.18
2018-02-24T15:32:24.584Z,12.40
2018-02-24T15:34:52.299Z,10.23
2018-02-24T15:37:20.049Z,11.60
2018-02-24T15:39:47.754Z,18.65
2018-02-24T15:42:15.473Z,10.50
2018-02-24T15:44:43.179Z,11.77
2018-02-24T15:47:10.897Z,10.77
2018-02-24T15:49:38.643Z,11.57
2018-02-24T15:52:06.358Z,10.20
2018-02-24T15:54:34.841Z,12.00
2018-02-24T15:57:03.319Z,15.50
2018-02-24T15:59:31.804Z,16.05
2018-02-24T16:02:00.282Z,15.45
2018-02-24T16:04:28.763Z,13.65
2018-02-24T16:06:57.229Z,11.38
2018-02-24T16:09:24.938Z,14.73
2018-02-24T16:11:52.646Z,13.75
2018-02-24T16:14:20.355Z,14.82
2018-02-24T16:16:48.103Z,15.35
2018-02-24T16:19:16.578Z,14.73
2018-02-24T16:21:44.318Z,14.07
2018-02-24T16:24:12.045Z,14.68
2018-02-24T16:26:39.750Z,13.75
2018-02-24T16:29:07.466Z,20.62
2018-02-24T16:31:35.174Z,15.20
2018-02-24T16:34:02.880Z,17.58
2018-02-24T16:36:31.350Z,15.95
2018-02-24T16:38:59.830Z,12.70
2018-02-24T16:41:28.306Z,14.75
2018-02-24T16:43:56.022Z,12.40
2018-02-24T16:46:23.738Z,14.60
2018-02-24T16:48:52.211Z,16.27
2018-02-24T16:51:19.934Z,17.25
2018-02-24T16:53:47.653Z,12.55
2018-02-24T16:56:16.137Z,31.45
2018-02-24T16:58:44.614Z,13.50
2018-02-24T17:01:13.090Z,12.70
2018-02-24T17:03:41.579Z,14.27
2018-02-24T17:06:10.059Z,11.40
2018-02-24T17:08:38.555Z,12.48
2018-02-24T17:11:06.305Z,11.55
2018-02-24T17:13:34.842Z,14.15
2018-02-24T17:16:02.545Z,16.73
2018-02-24T17:18:31.028Z,13.75
2018-02-24T17:20:59.507Z,13.15
2018-02-24T17:23:27.986Z,13.62
2018-02-24T17:25:55.731Z,13.98
2018-02-24T17:28:23.470Z,16.10
2018-02-24T17:30:51.182Z,16.87
2018-02-24T17:33:18.913Z,12.65
2018-02-24T17:35:46.663Z,12.60
2018-02-24T17:38:14.547Z,15.43
2018-02-24T17:40:42.312Z,11.30
2018-02-24T17:43:10.030Z,16.30
2018-02-24T17:45:37.761Z,17.35
2018-02-24T17:48:05.486Z,13.62
2018-02-24T17:50:33.210Z,13.55
2018-02-24T17:53:01.708Z,13.98
2018-02-24T17:55:29.437Z,11.95
2018-02-24T17:57:57.181Z,9.23
2018-02-24T18:00:25.047Z,14.68
2018-02-24T18:02:52.912Z,10.00
2018-02-24T18:05:20.779Z,14.82
2018-02-24T18:07:48.647Z,13.23
2018-02-24T18:10:16.515Z,13.35
2018-02-24T18:12:44.381Z,11.45
2018-02-24T18:15:12.252Z,13.18
2018-02-24T18:17:40.254Z,10.23
2018-02-24T18:20:09.861Z,13.27
2018-02-24T18:22:38.515Z,9.35
2018-02-24T18:25:06.381Z,9.45
2018-02-24T18:27:34.242Z,9.32
2018-02-24T18:30:02.115Z,10.82
2018-02-24T18:32:30.970Z,10.63
2018-02-24T18:34:58.874Z,8.45
2018-02-24T18:37:26.601Z,12.77
2018-02-24T18:39:54.507Z,8.43
2018-02-24T18:42:22.374Z,8.50
2018-02-24T18:44:50.103Z,14.65
2018-02-24T18:47:17.904Z,10.23
2018-02-24T18:49:45.772Z,8.95
2018-02-24T18:52:13.638Z,6.97
2018-02-24T18:54:41.505Z,6.57
2018-02-24T18:57:09.373Z,7.30
2018-02-24T18:59:37.241Z,7.12
2018-02-24T19:02:05.107Z,8.77
2018-02-24T19:04:32.974Z,8.82
2018-02-24T19:07:00.842Z,7.12
2018-02-24T19:09:28.708Z,8.00
2018-02-24T19:11:56.578Z,8.10
2018-02-24T19:14:24.502Z,9.60
2018-02-24T19:16:53.130Z,5.70
2018-02-24T19:19:20.998Z,8.07
2018-02-24T19:21:48.865Z,5.78
2018-02-24T19:24:16.732Z,6.93
2018-02-24T19:26:44.604Z,5.57
2018-02-24T19:29:12.467Z,6.22
2018-02-24T19:31:40.337Z,6.45
2018-02-24T19:34:08.201Z,5.60
2018-02-24T19:36:36.069Z,4.70
2018-02-24T19:39:03.936Z,7.60
2018-02-24T19:41:31.803Z,6.53
2018-02-24T19:43:59.670Z,6.75
2018-02-24T19:46:27.538Z,4.60
2018-02-24T19:48:55.405Z,4.20
2018-02-24T19:51:23.118Z,8.98
2018-02-24T19:53:51.633Z,6.32
2018-02-24T19:56:19.362Z,5.70
2018-02-24T19:58:47.898Z,9.32
2018-02-24T20:01:15.643Z,6.80
2018-02-24T20:03:43.362Z,6.07
2018-02-24T20:06:11.858Z,5.00
2018-02-24T20:08:40.337Z,7.12
2018-02-24T20:11:08.865Z,6.22
2018-02-24T20:13:36.743Z,5.70
2018-02-24T20:16:04.612Z,5.45
2018-02-24T20:18:32.330Z,4.40
2018-02-24T20:21:00.064Z,5.18
2018-02-24T20:23:28.558Z,8.60
2018-02-24T20:25:57.095Z,4.37
2018-02-24T20:28:24.976Z,4.40
2018-02-24T20:30:52.836Z,4.12
2018-02-24T20:33:20.704Z,4.65
2018-02-24T20:35:48.423Z,7.62
2018-02-24T20:38:16.177Z,3.37
2018-02-24T20:40:44.654Z,5.12
2018-02-24T20:43:13.142Z,11.10
2018-02-24T20:45:41.609Z,4.82
2018-02-24T20:48:10.262Z,3.90
2018-02-24T20:50:38.132Z,3.05
2018-02-24T20:53:05.998Z,4.07
2018-02-24T20:55:33.792Z,3.62
2018-02-24T20:58:01.543Z,5.20
2018-02-24T21:00:29.394Z,4.30
2018-02-24T21:02:57.193Z,2.83
2018-02-24T21:05:25.853Z,6.32
2018-02-24T21:07:53.715Z,4.32
2018-02-24T21:10:21.581Z,15.32
2018-02-24T21:12:49.448Z,3.75
2018-02-24T21:15:17.315Z,3.65
2018-02-24T21:17:45.187Z,4.68
2018-02-24T21:20:13.053Z,4.03
2018-02-24T21:22:40.917Z,4.60
2018-02-24T21:25:08.784Z,4.87
2018-02-24T21:27:36.652Z,3.95
2018-02-24T21:30:04.520Z,6.18
2018-02-24T21:32:32.390Z,5.00
2018-02-24T21:35:00.291Z,3.08
2018-02-24T21:37:28.805Z,4.03
2018-02-24T21:39:56.530Z,3.90
2018-02-24T21:42:24.368Z,5.87
2018-02-24T21:44:52.237Z,3.15
2018-02-24T21:47:20.103Z,3.65
2018-02-24T21:49:47.970Z,3.33
2018-02-24T21:52:15.939Z,6.78
2018-02-24T21:54:43.809Z,12.40
2018-02-24T21:57:11.675Z,3.47
2018-02-24T21:59:39.541Z,3.67
2018-02-24T22:02:07.409Z,4.70
2018-02-24T22:04:35.275Z,3.92
2018-02-24T22:07:03.250Z,3.62
2018-02-24T22:09:31.113Z,4.05
2018-02-24T22:11:58.980Z,3.72
2018-02-24T22:14:26.848Z,4.25
2018-02-24T22:16:54.715Z,4.10
2018-02-24T22:19:22.582Z,3.92
2018-02-24T22:21:50.655Z,5.12
2018-02-24T22:24:18.522Z,4.37
2018-02-24T22:26:46.389Z,3.83
2018-02-24T22:29:14.255Z,4.10
2018-02-24T22:31:42.124Z,3.87
2018-02-24T22:34:09.991Z,4.18
2018-02-24T22:36:37.859Z,4.05
2018-02-24T22:39:05.726Z,5.18
2018-02-24T22:41:33.526Z,7.50
2018-02-24T22:44:02.177Z,3.87
2018-02-24T22:46:30.045Z,4.62
2018-02-24T22:49:01.844Z,4.45
2018-02-24T22:51:30.489Z,3.22
2018-02-24T22:53:58.356Z,4.25
2018-02-24T22:56:26.224Z,4.45
2018-02-24T22:58:54.092Z,5.87
2018-02-24T23:01:21.963Z,4.00
2018-02-24T23:03:49.826Z,5.05
2018-02-24T23:06:17.693Z,4.12
2018-02-24T23:08:45.562Z,3.87
2018-02-24T23:11:13.354Z,6.43
2018-02-24T23:13:41.195Z,8.38
2018-02-24T23:16:09.061Z,4.85
2018-02-24T23:18:42.768Z,6.55
2018-02-24T23:21:10.632Z,3.72
2018-02-24T23:23:38.507Z,8.90
2018-02-24T23:26:06.366Z,6.85
2018-02-24T23:28:34.233Z,5.10
2018-02-24T23:31:02.029Z,8.73
2018-02-24T23:33:29.746Z,6.37
2018-02-24T23:35:57.462Z,6.90
2018-02-24T23:38:26.014Z,10.70
2018-02-24T23:40:53.878Z,4.57
2018-02-24T23:43:21.713Z,7.50
2018-02-24T23:45:50.434Z,9.43
2018-02-24T23:48:18.298Z,7.25
2018-02-24T23:50:46.269Z,7.75
2018-02-24T23:53:14.136Z,8.65
2018-02-24T23:55:42.003Z,6.55
2018-02-24T23:58:09.869Z,5.07
